Time;durP1;ratioP1;P1;durP2;ratioP2;P2;SDS_P1;SDS_P2;PMS_P1;PMS_P2;Temp;Humidity;BMP_temperature;BMP_pressure;BME280_temperature;BME280_humidity;BME280_pressure;Samples;Min_cycle;Max_cycle;Signal;HPM_P1;HPM_P2
2021/06/24 00:01:16;;;;;;;;;24.25;19.75;;;;;22.78;82.21;99593.09;3607011;39;11922;-59
2021/06/24 00:03:44;;;;;;;;;24.00;18.50;;;;;21.68;85.72;99598.94;3606273;39;12609;-58
2021/06/24 00:06:11;;;;;;;;;27.50;20.50;;;;;21.99;83.00;99587.34;3607188;39;12272;-59
2021/06/24 00:08:39;;;;;;;;;23.00;19.00;;;;;20.88;88.01;99592.13;3606557;39;12256;-59
2021/06/24 00:11:10;;;;;;;;;21.75;18.25;;;;;21.14;87.27;99595.66;3602294;39;12417;-59
2021/06/24 00:13:39;;;;;;;;;22.50;18.25;;;;;20.90;88.22;99590.09;3607791;39;12497;-58
2021/06/24 00:16:07;;;;;;;;;29.50;22.50;;;;;20.63;90.25;99586.56;3607283;39;12668;-58
2021/06/24 00:18:35;;;;;;;;;24.75;21.25;;;;;21.05;87.87;99589.31;3607437;39;13220;-58
2021/06/24 00:21:04;;;;;;;;;24.00;22.00;;;;;20.81;90.13;99583.75;3607175;39;12662;-57
2021/06/24 00:23:33;;;;;;;;;23.00;17.75;;;;;21.46;86.51;99586.78;3612044;39;12682;-57
2021/06/24 00:26:00;;;;;;;;;25.00;22.00;;;;;21.56;86.72;99586.59;3605575;39;12572;-58
2021/06/24 00:28:28;;;;;;;;;31.25;25.75;;;;;21.23;87.76;99577.44;3606900;39;13048;-58
2021/06/24 00:30:58;;;;;;;;;29.00;25.00;;;;;21.13;89.22;99563.94;3605949;39;13356;-58
2021/06/24 00:33:26;;;;;;;;;31.75;23.75;;;;;21.35;89.15;99570.63;3606329;39;13057;-58
2021/06/24 00:35:54;;;;;;;;;30.75;24.50;;;;;21.97;85.44;99567.53;3607251;39;13242;-58
2021/06/24 00:38:22;;;;;;;;;27.50;25.25;;;;;21.66;86.53;99578.25;3607200;39;13376;-58
2021/06/24 00:40:50;;;;;;;;;30.00;26.00;;;;;21.55;88.15;99590.38;3607751;39;13989;-58
2021/06/24 00:43:23;;;;;;;;;27.50;24.50;;;;;22.13;84.91;99586.66;3606038;39;13227;-58
2021/06/24 00:45:50;;;;;;;;;30.75;26.50;;;;;22.26;85.21;99579.84;3605814;39;12809;-58
2021/06/24 00:48:18;;;;;;;;;31.00;26.50;;;;;21.99;86.57;99578.31;3607039;39;13409;-58
2021/06/24 00:50:47;;;;;;;;;39.00;29.75;;;;;22.30;85.00;99570.25;3606641;39;12929;-58
2021/06/24 00:53:16;;;;;;;;;32.00;30.50;;;;;22.16;85.96;99573.66;3606484;39;13334;-58
2021/06/24 00:55:46;;;;;;;;;28.00;25.50;;;;;21.95;86.64;99566.84;3606363;39;13458;-58
2021/06/24 00:58:25;;;;;;;;;28.75;26.00;;;;;22.02;86.29;99570.59;3607039;39;12949;-58
2021/06/24 01:00:57;;;;;;;;;34.25;28.50;;;;;21.95;86.79;99555.91;3603117;39;13349;-58
2021/06/24 01:03:26;;;;;;;;;29.00;24.75;;;;;21.94;87.53;99543.25;3604085;39;13522;-58
2021/06/24 01:05:53;;;;;;;;;32.00;27.00;;;;;21.78;88.03;99548.75;3606819;39;13209;-58
2021/06/24 01:08:28;;;;;;;;;29.25;27.00;;;;;22.21;85.29;99563.09;3606785;39;13397;-58
2021/06/24 01:10:56;;;;;;;;;30.50;27.50;;;;;22.08;86.14;99558.97;3606793;39;13051;-57
2021/06/24 01:13:24;;;;;;;;;28.25;27.00;;;;;22.09;86.05;99566.16;3606931;39;13096;-58
2021/06/24 01:15:51;;;;;;;;;33.25;30.00;;;;;21.81;87.14;99562.91;3605966;39;13080;-58
2021/06/24 01:18:19;;;;;;;;;30.50;28.25;;;;;21.81;88.02;99567.53;3606065;39;13336;-58
2021/06/24 01:20:46;;;;;;;;;40.75;34.50;;;;;21.91;88.27;99577.25;3606634;39;13233;-58
2021/06/24 01:23:14;;;;;;;;;44.25;36.00;;;;;21.82;87.96;99578.28;3606555;39;13966;-58
2021/06/24 01:25:41;;;;;;;;;32.75;28.00;;;;;21.85;87.74;99569.75;3606582;39;14195;-58
2021/06/24 01:28:11;;;;;;;;;27.75;26.25;;;;;21.90;86.75;99561.03;3604237;39;13067;-58
2021/06/24 01:30:41;;;;;;;;;32.25;28.75;;;;;21.78;87.97;99565.13;3606680;39;12974;-59
2021/06/24 01:33:11;;;;;;;;;27.00;24.00;;;;;22.01;86.16;99568.91;3604682;39;13103;-58
2021/06/24 01:35:40;;;;;;;;;28.75;26.00;;;;;21.76;88.25;99564.44;3606657;39;13045;-58
2021/06/24 01:38:11;;;;;;;;;30.75;29.50;;;;;21.09;91.27;99556.22;3606389;39;13178;-59
2021/06/24 01:40:39;;;;;;;;;30.75;26.50;;;;;21.29;90.38;99557.66;3606630;39;14015;-59
2021/06/24 01:43:26;;;;;;;;;27.25;25.25;;;;;21.37;89.67;99565.88;3605174;39;14112;-59
2021/06/24 01:45:57;;;;;;;;;30.75;26.75;;;;;21.65;88.27;99563.75;3604102;39;13502;-58
2021/06/24 01:48:26;;;;;;;;;27.50;25.75;;;;;21.59;89.07;99569.00;3605052;39;13488;-57
2021/06/24 01:50:57;;;;;;;;;28.00;25.50;;;;;21.17;90.68;99569.91;3606690;39;13219;-58
2021/06/24 01:53:25;;;;;;;;;33.25;29.75;;;;;21.50;89.50;99575.50;3606715;39;13535;-57
2021/06/24 01:55:53;;;;;;;;;32.00;29.00;;;;;;;;3605588;39;14196;-57
2021/06/24 01:58:23;;;;;;;;;30.50;28.50;;;;;20.81;91.04;99568.22;3606164;39;13492;-58
2021/06/24 02:00:55;;;;;;;;;31.00;25.75;;;;;20.60;90.92;99568.63;3605588;39;13969;-58
2021/06/24 02:03:24;;;;;;;;;29.75;26.00;;;;;21.23;87.06;99569.25;3606902;39;13283;-58
2021/06/24 02:05:55;;;;;;;;;26.00;25.25;;;;;20.68;88.67;99564.25;3604815;39;13556;-57
2021/06/24 02:08:25;;;;;;;;;25.00;23.50;;;;;20.65;90.36;99570.88;3605888;39;14137;-57
2021/06/24 02:10:56;;;;;;;;;29.00;24.00;;;;;21.03;88.16;99565.94;3614346;39;13402;-57
2021/06/24 02:13:25;;;;;;;;;30.00;24.75;;;;;20.95;88.97;99585.00;3606219;39;14116;-58
2021/06/24 02:15:52;;;;;;;;;33.00;26.00;;;;;20.90;90.38;99584.66;3605540;39;13957;-58
2021/06/24 02:18:20;;;;;;;;;33.25;27.25;;;;;21.07;90.07;99586.44;3606073;39;14695;-59
2021/06/24 02:20:47;;;;;;;;;37.25;28.50;;;;;21.22;90.25;99579.34;3605818;39;14447;-58
2021/06/24 02:23:15;;;;;;;;;28.75;26.50;;;;;21.03;91.05;99580.44;3612860;39;13997;-59
2021/06/24 02:25:42;;;;;;;;;36.50;30.25;;;;;20.73;92.20;99581.84;3606702;39;13961;-58
2021/06/24 02:28:09;;;;;;;;;34.50;29.75;;;;;20.89;91.47;99585.69;3606360;39;14164;-57
2021/06/24 02:30:37;;;;;;;;;41.75;30.75;;;;;20.65;93.50;99576.34;3602621;39;13983;-58
2021/06/24 02:33:07;;;;;;;;;40.75;31.00;;;;;20.64;93.37;99560.97;3605232;39;14542;-58
2021/06/24 02:35:36;;;;;;;;;34.50;30.50;;;;;20.42;95.06;99564.22;3608541;39;14529;-58
2021/06/24 02:38:08;;;;;;;;;33.75;29.75;;;;;20.71;93.43;99567.50;3606129;39;14548;-58
2021/06/24 02:40:36;;;;;;;;;30.50;27.00;;;;;20.80;92.57;99574.72;3605932;39;13956;-59
2021/06/24 02:43:03;;;;;;;;;32.25;29.00;;;;;20.57;92.71;99568.13;3606024;39;14022;-58
2021/06/24 02:45:31;;;;;;;;;30.75;26.25;;;;;20.58;92.28;99561.63;3606359;39;13965;-57
2021/06/24 02:47:59;;;;;;;;;29.50;27.25;;;;;20.59;92.75;99563.34;3606197;39;14677;-59
2021/06/24 02:50:27;;;;;;;;;29.50;25.50;;;;;20.17;93.44;99562.19;3605913;39;14733;-58
2021/06/24 02:52:55;;;;;;;;;31.25;27.00;;;;;20.12;93.84;99564.53;3605810;39;14178;-57
2021/06/24 02:55:22;;;;;;;;;30.00;26.75;;;;;20.29;92.88;99565.50;3604632;39;14160;-58
2021/06/24 02:57:50;;;;;;;;;36.50;29.00;;;;;20.51;92.66;99568.69;3606533;39;14170;-57
2021/06/24 03:00:18;;;;;;;;;34.75;30.00;;;;;20.61;92.32;99573.06;3605653;39;14561;-58
2021/06/24 03:02:45;;;;;;;;;36.00;30.50;;;;;20.94;90.68;99575.13;3605709;39;13973;-57
2021/06/24 03:05:15;;;;;;;;;36.50;29.50;;;;;20.50;91.97;99564.28;3605878;39;13964;-57
2021/06/24 03:07:42;;;;;;;;;33.50;30.00;;;;;20.24;93.94;99567.00;3605441;39;13955;-57
2021/06/24 03:10:10;;;;;;;;;35.50;29.25;;;;;20.49;93.03;99571.63;3606370;39;14004;-57
2021/06/24 03:12:38;;;;;;;;;33.50;24.75;;;;;20.72;92.11;99577.41;3605987;39;14371;-57
2021/06/24 03:15:08;;;;;;;;;34.25;31.00;;;;;20.39;92.84;99568.97;3607855;39;14695;-57
2021/06/24 03:17:35;;;;;;;;;38.50;31.00;;;;;20.14;93.91;99561.63;3607629;39;13961;-57
2021/06/24 03:20:08;;;;;;;;;28.75;27.75;;;;;20.18;94.18;99563.91;3607655;39;13972;-57
2021/06/24 03:22:36;;;;;;;;;33.75;28.25;;;;;20.11;92.53;99572.88;3606355;39;14053;-57
2021/06/24 03:25:07;;;;;;;;;31.50;28.75;;;;;20.49;90.89;99570.75;3607972;39;14178;-57
2021/06/24 03:27:35;;;;;;;;;31.25;29.00;;;;;20.43;90.17;99580.41;3606664;39;14013;-57
2021/06/24 03:30:10;;;;;;;;;30.25;26.00;;;;;20.75;88.54;99581.69;3608024;39;14683;-58
2021/06/24 03:32:37;;;;;;;;;31.50;26.00;;;;;20.52;89.63;99581.34;3606701;39;14192;-57
2021/06/24 03:35:05;;;;;;;;;33.50;28.50;;;;;20.54;90.93;99580.19;3607389;39;13995;-57
2021/06/24 03:37:33;;;;;;;;;37.75;31.25;;;;;20.12;92.50;99580.03;3607586;39;14176;-57
2021/06/24 03:40:00;;;;;;;;;33.50;30.00;;;;;20.21;92.27;99579.09;3615541;39;14072;-57
2021/06/24 03:42:27;;;;;;;;;37.50;30.25;;;;;20.69;90.15;99583.16;3607618;39;14460;-57
2021/06/24 03:44:55;;;;;;;;;36.50;31.25;;;;;20.85;89.25;99592.47;3607233;39;14199;-56
2021/06/24 03:47:22;;;;;;;;;39.75;31.25;;;;;21.01;88.98;99587.94;3607191;39;14077;-57
2021/06/24 03:49:52;;;;;;;;;32.50;29.50;;;;;21.07;89.06;99594.63;3606920;39;14154;-57
2021/06/24 03:52:20;;;;;;;;;34.50;29.00;;;;;21.04;89.64;99581.31;3613220;39;13971;-57
2021/06/24 03:54:47;;;;;;;;;37.75;32.00;;;;;21.09;89.66;99578.06;3606552;39;14000;-57
2021/06/24 03:57:15;;;;;;;;;32.25;29.75;;;;;21.49;87.71;99585.59;3607334;39;14010;-57
2021/06/24 03:59:42;;;;;;;;;38.25;32.50;;;;;21.38;88.40;99584.03;3607082;39;14521;-57
2021/06/24 04:02:10;;;;;;;;;37.00;32.00;;;;;21.10;90.05;99577.91;3607238;39;14510;-57
2021/06/24 04:04:37;;;;;;;;;37.00;30.00;;;;;21.61;88.15;99583.38;3607112;39;13981;-57
2021/06/24 04:07:04;;;;;;;;;40.25;30.00;;;;;21.85;86.43;99583.41;3607436;39;13977;-57
2021/06/24 04:09:32;;;;;;;;;41.25;30.75;;;;;21.82;86.36;99596.56;3607038;39;14537;-57
2021/06/24 04:11:59;;;;;;;;;35.25;29.75;;;;;21.93;86.22;99593.47;3607205;39;14083;-58
2021/06/24 04:14:26;;;;;;;;;38.00;30.25;;;;;21.82;87.35;99596.56;3607498;39;13515;-57
2021/06/24 04:16:54;;;;;;;;;34.75;30.25;;;;;21.95;87.10;99596.06;3607118;39;13986;-57
2021/06/24 04:19:21;;;;;;;;;35.00;29.75;;;;;22.10;86.09;99602.56;3606392;39;14187;-57
2021/06/24 04:21:49;;;;;;;;;35.00;30.50;;;;;22.38;85.47;99597.63;3607147;39;13502;-57
2021/06/24 04:24:16;;;;;;;;;35.75;32.75;;;;;22.43;85.77;99588.88;3606525;39;13374;-57
2021/06/24 04:26:44;;;;;;;;;27.00;27.00;;;;;22.43;86.16;99597.09;3606616;39;13978;-57
2021/06/24 04:29:12;;;;;;;;;41.00;32.25;;;;;22.76;84.91;99593.25;3607073;39;14172;-58
2021/06/24 04:31:39;;;;;;;;;37.00;30.50;;;;;22.85;84.67;99596.81;3606575;39;13346;-57
2021/06/24 04:34:06;;;;;;;;;38.75;31.75;;;;;22.88;85.24;99603.81;3606754;39;13072;-57
2021/06/24 04:36:34;;;;;;;;;35.50;31.25;;;;;23.17;83.75;99609.59;3606189;39;13497;-57
2021/06/24 04:39:01;;;;;;;;;44.50;33.75;;;;;23.21;83.41;99601.88;3607314;39;13384;-58
2021/06/24 04:41:29;;;;;;;;;43.75;33.50;;;;;23.35;82.74;99600.25;3607053;39;13236;-58
2021/06/24 04:43:56;;;;;;;;;43.25;34.75;;;;;22.70;85.87;99588.50;3606448;39;13311;-57
2021/06/24 04:46:23;;;;;;;;;36.25;31.75;;;;;23.37;83.79;99589.97;3607074;39;13486;-57
2021/06/24 04:48:51;;;;;;;;;34.75;27.75;;;;;23.84;81.46;99595.34;3606777;39;13082;-57
2021/06/24 04:51:18;;;;;;;;;34.50;31.75;;;;;24.23;79.39;99597.09;3607072;39;12302;-57
2021/06/24 04:53:46;;;;;;;;;34.75;28.00;;;;;24.01;80.77;99600.72;3604730;39;12665;-58
2021/06/24 04:56:13;;;;;;;;;38.00;33.75;;;;;24.00;80.88;99599.00;3607011;39;12166;-58
2021/06/24 04:58:40;;;;;;;;;45.00;31.75;;;;;23.98;81.70;99601.09;3606937;39;12401;-57
2021/06/24 05:01:08;;;;;;;;;36.00;31.75;;;;;24.08;80.88;99598.94;3606914;39;12575;-57
2021/06/24 05:03:35;;;;;;;;;34.50;31.75;;;;;23.92;82.41;99596.34;3614471;39;12109;-57
2021/06/24 05:06:05;;;;;;;;;35.25;31.00;;;;;24.32;79.89;99598.72;3607000;39;12166;-57
2021/06/24 05:08:34;;;;;;;;;42.50;31.75;;;;;24.50;79.72;99600.31;3605169;39;11897;-57
2021/06/24 05:11:01;;;;;;;;;36.00;29.75;;;;;24.81;78.66;99602.06;3606226;39;12176;-58
2021/06/24 05:13:28;;;;;;;;;24.25;19.25;;;;;24.77;79.03;99603.47;3606531;39;12412;-58
2021/06/24 05:15:56;;;;;;;;;38.25;32.25;;;;;24.22;81.24;99600.88;3607120;39;11731;-57
2021/06/24 05:18:24;;;;;;;;;36.75;32.25;;;;;24.90;79.50;99604.50;3605964;39;12548;-56
2021/06/24 05:20:52;;;;;;;;;39.50;31.00;;;;;25.08;78.63;99608.78;3606215;39;12445;-57
2021/06/24 05:23:19;;;;;;;;;39.00;33.00;;;;;24.67;80.54;99610.13;3605679;39;12473;-57
2021/06/24 05:25:47;;;;;;;;;33.00;31.00;;;;;25.54;77.59;99617.69;3614974;39;12548;-57
2021/06/24 05:28:14;;;;;;;;;35.25;31.50;;;;;25.80;76.96;99625.38;3606943;39;12113;-57
2021/06/24 05:30:45;;;;;;;;;37.00;32.75;;;;;25.48;78.37;99614.81;3607143;39;12076;-57
2021/06/24 05:33:14;;;;;;;;;38.75;32.25;;;;;25.60;78.14;99621.53;3604952;39;11687;-57
2021/06/24 05:35:46;;;;;;;;;34.25;32.25;;;;;25.47;78.69;99618.63;3604101;39;11858;-57
2021/06/24 05:38:16;;;;;;;;;40.00;33.25;;;;;25.72;78.83;99617.22;3606318;39;11740;-57
2021/06/24 05:40:46;;;;;;;;;35.25;30.50;;;;;25.92;77.97;99606.47;3603605;39;11869;-57
2021/06/24 05:43:15;;;;;;;;;37.75;32.25;;;;;26.33;76.87;99611.31;3605969;39;11573;-57
2021/06/24 05:45:43;;;;;;;;;41.00;33.25;;;;;25.97;77.69;99614.16;3606344;39;11906;-58
2021/06/24 05:48:10;;;;;;;;;41.25;33.25;;;;;26.28;77.14;99616.56;3606791;39;11341;-57
2021/06/24 05:50:39;;;;;;;;;37.25;31.25;;;;;26.32;76.89;99609.59;3607021;39;11802;-56
2021/06/24 05:53:07;;;;;;;;;36.00;32.75;;;;;25.95;76.54;99617.09;3605788;39;11175;-57
2021/06/24 05:58:23;;;;;;;;;36.75;31.50;;;;;26.36;75.64;99612.81;3606550;39;10867;-57
2021/06/24 06:00:54;;;;;;;;;34.50;30.25;;;;;26.90;75.01;99606.69;3606073;39;11353;-57
2021/06/24 06:03:23;;;;;;;;;30.25;28.00;;;;;27.03;73.92;99614.19;3606258;39;11009;-58
2021/06/24 06:05:53;;;;;;;;;35.25;31.00;;;;;26.93;73.46;99615.38;3602457;39;11411;-58
2021/06/24 06:08:22;;;;;;;;;36.00;29.67;;;;;27.45;72.13;99629.69;3606297;39;10847;-58
2021/06/24 06:10:50;;;;;;;;;31.75;28.50;;;;;27.21;72.11;99627.47;3606418;39;10297;-58
2021/06/24 06:13:17;;;;;;;;;39.33;33.00;;;;;27.31;73.01;99628.78;3606587;39;10496;-58
2021/06/24 06:15:50;;;;;;;;;37.33;32.00;;;;;27.06;73.21;99630.31;3606465;39;10084;-59
2021/06/24 06:18:21;;;;;;;;;38.00;32.00;;;;;26.77;73.90;99631.38;3607145;39;10241;-60
2021/06/24 06:20:49;;;;;;;;;37.33;33.00;;;;;27.14;72.31;99633.72;3606535;39;10254;-58
2021/06/24 06:23:19;;;;;;;;;40.75;33.75;;;;;27.14;72.72;99633.72;3606246;39;10832;-58
2021/06/24 06:25:47;;;;;;;;;35.67;29.67;;;;;27.26;72.37;99634.06;3614030;39;10981;-58
2021/06/24 06:28:17;;;;;;;;;37.33;32.00;;;;;27.68;70.91;99629.34;3605461;39;10324;-58
2021/06/24 06:30:50;;;;;;;;;35.33;31.33;;;;;27.44;72.61;99622.47;3605758;39;10189;-58
2021/06/24 06:33:19;;;;;;;;;37.33;31.33;;;;;27.95;69.14;99615.66;3606285;39;10280;-56
2021/06/24 06:35:49;;;;;;;;;34.67;30.67;;;;;28.61;68.05;99617.66;3606255;39;10358;-58
2021/06/24 06:38:18;;;;;;;;;35.00;31.33;;;;;28.73;66.81;99623.41;3606719;39;9973;-58
2021/06/24 06:40:46;;;;;;;;;35.50;29.75;;;;;28.91;67.17;99626.31;3605505;39;9882;-59
2021/06/24 06:43:15;;;;;;;;;43.67;33.00;;;;;28.52;66.84;99618.94;3606372;39;9839;-59
2021/06/24 06:45:44;;;;;;;;;41.67;32.67;;;;;28.89;66.84;99621.03;3605556;39;9810;-59
2021/06/24 06:48:12;;;;;;;;;35.33;32.00;;;;;29.42;65.17;99625.59;3607172;39;9843;-58
2021/06/24 06:50:41;;;;;;;;;40.50;33.00;;;;;28.67;67.73;99625.06;3609973;39;9863;-58
2021/06/24 06:53:09;;;;;;;;;43.00;32.00;;;;;28.80;67.43;99622.28;3607598;39;9858;-58
2021/06/24 06:55:38;;;;;;;;;39.67;32.33;;;;;29.74;64.44;99631.22;3607883;39;10016;-58
2021/06/24 06:58:06;;;;;;;;;36.00;33.00;;;;;28.77;66.70;99621.88;3607914;39;9933;-59
2021/06/24 07:00:34;;;;;;;;;35.75;31.25;;;;;29.61;64.14;99631.25;3608206;39;10044;-56
2021/06/24 07:03:03;;;;;;;;;35.00;31.67;;;;;29.67;64.51;99633.16;3607940;39;9870;-58
2021/06/24 07:05:31;;;;;;;;;38.75;32.00;;;;;30.45;61.33;99634.84;3607640;39;10243;-58
2021/06/24 07:07:59;;;;;;;;;34.75;29.75;;;;;29.83;64.14;99621.56;3607776;39;9782;-58
2021/06/24 07:10:27;;;;;;;;;29.00;27.25;;;;;30.02;61.15;99618.91;3607901;39;9777;-58
2021/06/24 07:12:54;;;;;;;;;36.00;32.25;;;;;29.96;63.13;99621.53;3608018;39;10347;-58
2021/06/24 07:15:22;;;;;;;;;34.00;30.00;;;;;29.72;64.02;99623.13;3608189;39;9893;-58
2021/06/24 07:17:50;;;;;;;;;38.00;32.00;;;;;30.27;61.66;99633.69;3607744;39;9873;-58
2021/06/24 07:20:18;;;;;;;;;33.50;31.25;;;;;30.23;61.93;99632.44;3607820;39;9840;-58
2021/06/24 07:22:46;;;;;;;;;33.50;28.75;;;;;30.31;61.51;99629.41;3607728;39;10023;-59
2021/06/24 07:25:16;;;;;;;;;30.25;30.00;;;;;31.23;58.41;99637.09;3607706;39;10076;-58
2021/06/24 07:27:45;;;;;;;;;36.75;31.00;;;;;31.01;60.34;99633.91;3607856;39;9811;-61
2021/06/24 07:30:14;;;;;;;;;39.50;33.25;;;;;30.79;61.45;99637.09;3607562;39;10326;-61
2021/06/24 07:32:42;;;;;;;;;33.00;29.75;;;;;30.32;59.40;99641.31;3607458;39;9850;-61
2021/06/24 07:35:11;;;;;;;;;30.25;27.50;;;;;30.80;57.76;99640.69;3598597;39;10028;-62
2021/06/24 07:37:38;;;;;;;;;30.00;26.50;;;;;31.04;57.19;99637.09;3615484;39;9846;-62
2021/06/24 07:40:07;;;;;;;;;26.50;23.75;;;;;30.87;58.09;99637.91;3615829;39;9862;-61
2021/06/24 07:42:34;;;;;;;;;33.00;27.25;;;;;31.02;59.18;99641.19;3607654;39;9913;-61
2021/06/24 07:45:03;;;;;;;;;33.50;29.25;;;;;31.23;58.32;99642.66;3606013;39;9950;-62
2021/06/24 07:47:31;;;;;;;;;30.00;29.00;;;;;31.26;57.10;99642.19;3606707;39;9861;-61
2021/06/24 07:49:58;;;;;;;;;29.25;25.50;;;;;31.75;54.61;99643.09;3606363;39;9852;-61
2021/06/24 07:52:26;;;;;;;;;29.75;28.50;;;;;31.61;55.18;99642.44;3607842;39;9884;-61
2021/06/24 07:54:53;;;;;;;;;28.75;26.25;;;;;31.55;57.41;99640.59;3607421;39;9786;-61
2021/06/24 07:57:20;;;;;;;;;31.25;28.75;;;;;31.76;55.39;99644.81;3607793;39;9933;-62
2021/06/24 07:59:48;;;;;;;;;32.00;29.25;;;;;31.51;56.63;99639.34;3607003;39;9851;-61
2021/06/24 08:02:16;;;;;;;;;23.50;21.50;;;;;31.89;53.47;99641.00;3607583;39;9861;-62
2021/06/24 08:04:44;;;;;;;;;28.00;25.25;;;;;31.51;55.63;99638.50;3607645;39;9879;-60
2021/06/24 08:07:12;;;;;;;;;26.75;23.00;;;;;31.80;55.36;99639.63;3603572;39;9788;-60
2021/06/24 08:09:39;;;;;;;;;27.00;23.75;;;;;32.58;52.93;99638.72;3607639;39;10607;-60
2021/06/24 08:12:07;;;;;;;;;23.75;22.75;;;;;32.44;51.26;99643.63;3607521;39;9876;-59
2021/06/24 08:14:35;;;;;;;;;25.50;21.75;;;;;32.90;50.93;99636.44;3607575;39;9970;-60
2021/06/24 08:17:03;;;;;;;;;28.50;23.00;;;;;32.58;51.95;99636.78;3607204;39;9884;-59
2021/06/24 08:19:30;;;;;;;;;24.75;21.00;;;;;32.66;51.78;99632.78;3607711;39;9900;-60
2021/06/24 08:21:58;;;;;;;;;21.25;20.00;;;;;32.64;49.71;99631.34;3606718;39;9873;-60
2021/06/24 08:24:27;;;;;;;;;18.50;17.50;;;;;32.54;50.29;99635.53;3607274;39;9868;-61
2021/06/24 08:26:56;;;;;;;;;21.50;18.50;;;;;32.64;48.45;99631.34;3606573;39;9792;-61
2021/06/24 08:29:23;;;;;;;;;22.75;18.25;;;;;33.08;48.78;99640.22;3606513;39;10061;-61
2021/06/24 08:31:51;;;;;;;;;21.00;21.00;;;;;33.72;47.86;99638.28;3607220;39;10081;-59
2021/06/24 08:34:18;;;;;;;;;21.75;18.75;;;;;32.54;48.69;99631.91;3606255;39;10081;-60
2021/06/24 08:36:46;;;;;;;;;20.00;17.25;;;;;33.77;47.08;99637.53;3607564;39;10292;-60
2021/06/24 08:39:13;;;;;;;;;18.75;17.50;;;;;33.02;47.35;99636.47;3607165;39;10245;-60
2021/06/24 08:41:48;;;;;;;;;19.50;18.25;;;;;33.33;47.24;99629.63;3607120;39;10518;-60
2021/06/24 08:44:17;;;;;;;;;24.50;20.25;;;;;33.23;46.55;99623.88;3605963;39;10678;-60
2021/06/24 08:46:45;;;;;;;;;18.00;14.00;;;;;33.19;47.77;99633.78;3607034;39;10582;-61
2021/06/24 08:49:15;;;;;;;;;21.00;18.50;;;;;33.97;46.88;99640.72;3603703;39;10459;-59
2021/06/24 08:51:42;;;;;;;;;21.00;18.75;;;;;32.69;48.03;99631.47;3606972;39;10448;-58
2021/06/24 08:54:10;;;;;;;;;17.80;15.40;;;;;34.05;44.12;99636.69;3606829;39;11443;-58
2021/06/24 08:56:37;;;;;;;;;20.50;18.25;;;;;33.82;46.14;99632.06;3606392;39;10648;-58
2021/06/24 08:59:05;;;;;;;;;25.00;19.00;;;;;33.83;46.23;99629.03;3606615;39;10429;-59
2021/06/24 09:01:53;;;;;;;;;17.60;14.20;;;;;33.88;42.82;99625.50;3607279;39;10707;-58
2021/06/24 09:04:31;;;;;;;;;19.40;15.00;;;;;34.21;43.44;99624.78;3604585;39;11315;-59
2021/06/24 09:07:12;;;;;;;;;21.40;15.40;;;;;34.27;43.03;99625.69;3606951;39;10689;-58
2021/06/24 09:09:53;;;;;;;;;20.20;14.40;;;;;34.88;42.57;99623.09;3606742;39;10687;-57
2021/06/24 09:12:22;;;;;;;;;17.20;14.00;;;;;34.80;40.25;99631.91;3603621;39;10674;-57
2021/06/24 09:15:00;;;;;;;;;15.60;11.80;;;;;34.45;38.25;99630.19;3606386;39;10626;-56
2021/06/24 09:17:40;;;;;;;;;15.80;11.00;;;;;34.86;38.52;99625.28;3603811;39;10412;-54
2021/06/24 09:20:22;;;;;;;;;15.80;11.60;;;;;34.40;39.47;99627.31;3607014;39;10598;-54
2021/06/24 09:23:10;;;;;;;;;12.00;12.00;;;;;34.88;37.55;99614.72;3607305;39;10560;-52
2021/06/24 09:26:06;;;;;;;;;12.60;11.40;;;;;35.21;38.26;99624.19;3614593;39;10531;-55
2021/06/24 09:28:43;;;;;;;;;14.40;10.20;;;;;35.08;36.06;99626.22;3604365;39;11015;-55
2021/06/24 09:31:34;;;;;;;;;11.60;10.00;;;;;35.59;35.42;99618.56;3605880;39;10489;-51
2021/06/24 09:34:07;;;;;;;;;16.60;14.20;;;;;35.00;35.56;99621.06;3607034;39;10533;-56
2021/06/24 09:36:41;;;;;;;;;9.40;9.00;;;;;35.24;35.45;99615.28;3602799;39;10326;-56
2021/06/24 09:39:28;;;;;;;;;11.60;8.40;;;;;35.33;35.19;99608.97;3607297;39;10528;-64
2021/06/24 09:42:01;;;;;;;;;14.80;11.60;;;;;35.09;35.57;99611.16;3604502;39;10571;-56
2021/06/24 09:44:30;;;;;;;;;11.20;10.00;;;;;35.49;34.94;99610.00;3606582;39;10453;-56
2021/06/24 09:46:59;;;;;;;;;10.60;9.20;;;;;35.77;34.32;99603.41;3604884;39;10235;-56
2021/06/24 09:49:34;;;;;;;;;12.20;10.00;;;;;35.41;34.13;99602.09;3603934;39;10449;-54
2021/06/24 09:52:05;;;;;;;;;12.80;10.20;;;;;35.44;34.57;99593.19;3600482;39;10533;-55
2021/06/24 09:54:46;;;;;;;;;10.20;10.20;;;;;35.75;33.70;99599.19;3605154;39;10370;-56
2021/06/24 09:57:26;;;;;;;;;9.60;9.60;;;;;35.84;33.54;99597.63;3606220;39;10444;-55
2021/06/24 09:59:54;;;;;;;;;13.20;9.40;;;;;35.25;33.83;99594.63;3603818;39;10828;-52
2021/06/24 10:02:21;;;;;;;;;11.00;9.80;;;;;35.61;34.20;99596.78;3605197;39;10305;-53
2021/06/24 10:04:50;;;;;;;;;9.60;8.00;;;;;35.47;33.70;99595.50;3605781;39;10136;-53
2021/06/24 10:07:21;;;;;;;;;8.60;7.20;;;;;35.64;33.07;99591.81;3605890;39;10213;-53
2021/06/24 10:09:48;;;;;;;;;13.00;9.00;;;;;35.71;33.71;99586.88;3606056;39;10323;-52
2021/06/24 10:12:19;;;;;;;;;12.80;8.80;;;;;35.36;31.88;99585.28;3606141;39;10900;-56
2021/06/24 10:14:48;;;;;;;;;12.20;8.00;;;;;35.79;32.41;99580.81;3604444;39;10308;-54
2021/06/24 10:17:15;;;;;;;;;8.80;8.20;;;;;35.86;31.98;99578.63;3606117;39;10272;-53
2021/06/24 10:19:45;;;;;;;;;9.00;6.80;;;;;35.86;31.74;99577.78;3609807;39;10180;-51
2021/06/24 10:22:22;;;;;;;;;11.80;8.20;;;;;36.37;31.74;99573.56;3605041;39;10308;-54
2021/06/24 10:25:04;;;;;;;;;11.40;8.60;;;;;36.24;31.52;99568.41;3605242;39;10416;-51
2021/06/24 10:27:38;;;;;;;;;10.20;6.40;;;;;36.22;30.67;99565.03;3606656;39;10276;-50
2021/06/24 10:30:20;;;;;;;;;10.40;8.20;;;;;36.03;31.15;99556.16;3605512;39;10202;-53
2021/06/24 10:33:08;;;;;;;;;9.20;7.00;;;;;37.01;29.98;99549.38;3605449;39;10363;-54
2021/06/24 10:35:49;;;;;;;;;9.80;7.00;;;;;36.53;30.67;99554.09;3604398;39;10198;-54
2021/06/24 10:38:17;;;;;;;;;9.60;5.80;;;;;36.39;30.08;99550.88;3605035;39;10180;-54
2021/06/24 10:40:58;;;;;;;;;10.40;7.00;;;;;36.85;28.80;99552.09;3604064;39;10485;-55
2021/06/24 10:43:48;;;;;;;;;9.80;8.60;;;;;36.95;29.43;99559.72;3605562;39;10148;-53
2021/06/24 10:46:20;;;;;;;;;6.60;3.60;;;;;36.69;29.08;99548.34;3606036;39;10258;-55
2021/06/24 10:48:49;;;;;;;;;9.80;7.00;;;;;36.65;29.49;99547.22;3604848;39;10215;-56
2021/06/24 10:51:17;;;;;;;;;8.20;6.20;;;;;36.66;29.01;99545.25;3596305;39;10309;-54
2021/06/24 10:53:48;;;;;;;;;6.20;6.20;;;;;36.56;29.13;99539.59;3605758;39;10642;-52
2021/06/24 10:56:29;;;;;;;;;9.20;7.00;;;;;36.75;29.78;99540.00;3605490;39;10301;-52
2021/06/24 10:59:01;;;;;;;;;7.80;7.00;;;;;36.62;29.17;99542.13;3606019;39;10615;-55
2021/06/24 11:01:42;;;;;;;;;5.60;5.00;;;;;36.82;29.52;99535.84;3604762;39;10223;-54
2021/06/24 11:04:31;;;;;;;;;13.60;8.00;;;;;36.76;29.21;99533.28;3605851;39;10783;-52
2021/06/24 11:07:06;;;;;;;;;8.00;6.20;;;;;36.67;29.21;99539.38;3604094;39;10151;-56
2021/06/24 11:09:34;;;;;;;;;8.80;5.60;;;;;36.89;28.92;99529.97;3605468;39;10223;-51
2021/06/24 11:12:01;;;;;;;;;8.80;5.00;;;;;36.66;28.68;99531.28;3604877;39;10182;-55
2021/06/24 11:14:54;;;;;;;;;7.40;6.80;;;;;36.84;27.87;99536.41;3605607;39;10129;-54
2021/06/24 11:17:46;;;;;;;;;9.60;6.60;;;;;37.26;28.76;99541.13;3605361;39;10326;-55
2021/06/24 11:20:19;;;;;;;;;9.20;5.00;;;;;37.16;28.77;99529.88;3604960;39;10424;-55
2021/06/24 11:22:52;;;;;;;;;9.00;7.00;;;;;36.63;28.45;99527.06;3604030;39;10150;-55
2021/06/24 11:25:20;;;;;;;;;10.60;7.00;;;;;37.23;28.21;99522.06;3605663;39;10186;-52
2021/06/24 11:27:47;;;;;;;;;8.80;6.20;;;;;36.56;28.24;99525.59;3605855;39;10143;-55
2021/06/24 11:30:15;;;;;;;;;9.00;6.80;;;;;37.47;28.60;99535.56;3605748;39;10184;-52
2021/06/24 11:32:46;;;;;;;;;9.60;7.00;;;;;37.41;28.46;99547.88;3605133;39;10397;-53
2021/06/24 11:35:29;;;;;;;;;8.20;6.20;;;;;37.59;28.83;99533.41;3607235;39;10287;-54
2021/06/24 11:38:02;;;;;;;;;12.80;6.40;;;;;37.24;27.77;99536.91;3604631;39;10205;-52